sensor_id;sensor_type;location;lat;lon;timestamp;P1;durP1;ratioP1;P2;durP2;ratioP2
6461;SDS011;3264;42.862;25.098;2023-04-25T00:00:19;7.80;;;7.50;;
6461;SDS011;3264;42.862;25.098;2023-04-25T00:02:48;16.52;;;8.90;;
6461;SDS011;3264;42.862;25.098;2023-04-25T00:05:17;7.30;;;7.10;;
6461;SDS011;3264;42.862;25.098;2023-04-25T00:07:45;7.85;;;7.57;;
6461;SDS011;3264;42.862;25.098;2023-04-25T00:10:12;7.40;;;7.20;;
6461;SDS011;3264;42.862;25.098;2023-04-25T00:12:44;7.38;;;7.18;;
6461;SDS011;3264;42.862;25.098;2023-04-25T00:15:13;7.40;;;7.20;;
6461;SDS011;3264;42.862;25.098;2023-04-25T00:17:41;8.18;;;7.88;;
6461;SDS011;3264;42.862;25.098;2023-04-25T00:20:12;8.35;;;8.05;;
6461;SDS011;3264;42.862;25.098;2023-04-25T00:22:42;8.40;;;8.10;;
6461;SDS011;3264;42.862;25.098;2023-04-25T00:25:14;7.40;;;7.20;;
6461;SDS011;3264;42.862;25.098;2023-04-25T00:27:46;7.50;;;7.30;;
6461;SDS011;3264;42.862;25.098;2023-04-25T00:30:14;7.30;;;7.10;;
6461;SDS011;3264;42.862;25.098;2023-04-25T00:32:50;7.60;;;7.40;;
6461;SDS011;3264;42.862;25.098;2023-04-25T00:35:21;8.43;;;8.00;;
6461;SDS011;3264;42.862;25.098;2023-04-25T00:37:51;7.15;;;6.95;;
6461;SDS011;3264;42.862;25.098;2023-04-25T00:40:21;7.80;;;7.55;;
6461;SDS011;3264;42.862;25.098;2023-04-25T00:42:50;8.15;;;7.85;;
6461;SDS011;3264;42.862;25.098;2023-04-25T00:45:20;8.32;;;8.02;;
6461;SDS011;3264;42.862;25.098;2023-04-25T00:47:48;7.93;;;7.63;;
6461;SDS011;3264;42.862;25.098;2023-04-25T00:50:15;7.68;;;7.47;;
6461;SDS011;3264;42.862;25.098;2023-04-25T00:52:44;7.47;;;7.28;;
6461;SDS011;3264;42.862;25.098;2023-04-25T00:55:14;7.88;;;7.57;;
6461;SDS011;3264;42.862;25.098;2023-04-25T00:57:43;7.50;;;7.30;;
6461;SDS011;3264;42.862;25.098;2023-04-25T01:00:10;7.38;;;7.18;;
6461;SDS011;3264;42.862;25.098;2023-04-25T01:02:47;7.53;;;7.32;;
6461;SDS011;3264;42.862;25.098;2023-04-25T01:05:21;7.63;;;7.32;;
6461;SDS011;3264;42.862;25.098;2023-04-25T01:07:53;7.32;;;7.13;;
6461;SDS011;3264;42.862;25.098;2023-04-25T01:10:23;7.88;;;7.57;;
6461;SDS011;3264;42.862;25.098;2023-04-25T01:12:54;7.90;;;7.60;;
6461;SDS011;3264;42.862;25.098;2023-04-25T01:15:23;8.02;;;7.72;;
6461;SDS011;3264;42.862;25.098;2023-04-25T01:17:51;7.63;;;7.43;;
6461;SDS011;3264;42.862;25.098;2023-04-25T01:20:21;7.50;;;7.30;;
6461;SDS011;3264;42.862;25.098;2023-04-25T01:22:52;7.50;;;7.30;;
6461;SDS011;3264;42.862;25.098;2023-04-25T01:25:21;7.53;;;7.32;;
6461;SDS011;3264;42.862;25.098;2023-04-25T01:27:50;7.82;;;7.55;;
6461;SDS011;3264;42.862;25.098;2023-04-25T01:30:24;8.00;;;7.65;;
6461;SDS011;3264;42.862;25.098;2023-04-25T01:32:54;7.70;;;7.45;;
6461;SDS011;3264;42.862;25.098;2023-04-25T01:35:26;7.70;;;7.47;;
6461;SDS011;3264;42.862;25.098;2023-04-25T01:37:56;7.88;;;7.57;;
6461;SDS011;3264;42.862;25.098;2023-04-25T01:40:25;8.10;;;7.80;;
6461;SDS011;3264;42.862;25.098;2023-04-25T01:42:57;7.95;;;7.65;;
6461;SDS011;3264;42.862;25.098;2023-04-25T01:45:43;7.68;;;7.40;;
6461;SDS011;3264;42.862;25.098;2023-04-25T01:48:13;7.30;;;7.10;;
6461;SDS011;3264;42.862;25.098;2023-04-25T01:50:43;8.20;;;7.90;;
6461;SDS011;3264;42.862;25.098;2023-04-25T01:53:16;7.65;;;7.43;;
6461;SDS011;3264;42.862;25.098;2023-04-25T01:55:43;7.60;;;7.40;;
6461;SDS011;3264;42.862;25.098;2023-04-25T01:58:21;8.77;;;8.48;;
6461;SDS011;3264;42.862;25.098;2023-04-25T02:00:51;7.50;;;7.30;;
6461;SDS011;3264;42.862;25.098;2023-04-25T02:03:29;7.53;;;7.32;;
6461;SDS011;3264;42.862;25.098;2023-04-25T02:05:59;7.35;;;7.15;;
6461;SDS011;3264;42.862;25.098;2023-04-25T02:08:29;8.27;;;7.93;;
6461;SDS011;3264;42.862;25.098;2023-04-25T02:10:57;7.90;;;7.60;;
6461;SDS011;3264;42.862;25.098;2023-04-25T02:13:26;7.53;;;7.32;;
6461;SDS011;3264;42.862;25.098;2023-04-25T02:15:55;7.30;;;7.10;;
6461;SDS011;3264;42.862;25.098;2023-04-25T02:18:23;7.50;;;7.30;;
6461;SDS011;3264;42.862;25.098;2023-04-25T02:20:52;7.03;;;6.82;;
6461;SDS011;3264;42.862;25.098;2023-04-25T02:23:21;7.45;;;7.20;;
6461;SDS011;3264;42.862;25.098;2023-04-25T02:25:51;7.78;;;7.50;;
6461;SDS011;3264;42.862;25.098;2023-04-25T02:28:21;7.10;;;6.90;;
6461;SDS011;3264;42.862;25.098;2023-04-25T02:30:50;7.90;;;7.60;;
6461;SDS011;3264;42.862;25.098;2023-04-25T02:33:19;6.97;;;6.78;;
6461;SDS011;3264;42.862;25.098;2023-04-25T02:35:48;7.00;;;6.80;;
6461;SDS011;3264;42.862;25.098;2023-04-25T02:38:16;7.50;;;7.30;;
6461;SDS011;3264;42.862;25.098;2023-04-25T02:40:45;7.03;;;6.82;;
6461;SDS011;3264;42.862;25.098;2023-04-25T02:43:15;7.60;;;7.40;;
6461;SDS011;3264;42.862;25.098;2023-04-25T02:45:44;7.32;;;7.13;;
6461;SDS011;3264;42.862;25.098;2023-04-25T02:48:12;7.57;;;7.38;;
6461;SDS011;3264;42.862;25.098;2023-04-25T02:50:41;7.70;;;7.40;;
6461;SDS011;3264;42.862;25.098;2023-04-25T02:53:08;7.35;;;7.15;;
6461;SDS011;3264;42.862;25.098;2023-04-25T02:55:37;7.40;;;7.20;;
6461;SDS011;3264;42.862;25.098;2023-04-25T02:58:05;7.95;;;7.65;;
6461;SDS011;3264;42.862;25.098;2023-04-25T03:00:35;7.45;;;7.25;;
6461;SDS011;3264;42.862;25.098;2023-04-25T03:03:04;7.35;;;7.07;;
6461;SDS011;3264;42.862;25.098;2023-04-25T03:05:32;8.07;;;7.78;;
6461;SDS011;3264;42.862;25.098;2023-04-25T03:08:01;7.60;;;7.40;;
6461;SDS011;3264;42.862;25.098;2023-04-25T03:10:29;8.48;;;8.18;;
6461;SDS011;3264;42.862;25.098;2023-04-25T03:12:57;8.23;;;7.93;;
6461;SDS011;3264;42.862;25.098;2023-04-25T03:15:27;7.15;;;6.95;;
6461;SDS011;3264;42.862;25.098;2023-04-25T03:17:57;7.88;;;7.57;;
6461;SDS011;3264;42.862;25.098;2023-04-25T03:20:26;7.35;;;7.15;;
6461;SDS011;3264;42.862;25.098;2023-04-25T03:22:55;7.32;;;7.13;;
6461;SDS011;3264;42.862;25.098;2023-04-25T03:25:22;7.68;;;7.45;;
6461;SDS011;3264;42.862;25.098;2023-04-25T03:27:51;6.93;;;6.72;;
6461;SDS011;3264;42.862;25.098;2023-04-25T03:30:19;6.53;;;6.32;;
6461;SDS011;3264;42.862;25.098;2023-04-25T03:32:47;7.38;;;7.18;;
6461;SDS011;3264;42.862;25.098;2023-04-25T03:35:16;7.78;;;7.50;;
6461;SDS011;3264;42.862;25.098;2023-04-25T03:37:44;8.05;;;7.75;;
6461;SDS011;3264;42.862;25.098;2023-04-25T03:40:11;7.32;;;7.13;;
6461;SDS011;3264;42.862;25.098;2023-04-25T03:42:39;7.30;;;7.10;;
6461;SDS011;3264;42.862;25.098;2023-04-25T03:45:08;7.25;;;7.05;;
6461;SDS011;3264;42.862;25.098;2023-04-25T03:47:36;7.20;;;7.00;;
6461;SDS011;3264;42.862;25.098;2023-04-25T03:50:04;7.30;;;7.10;;
6461;SDS011;3264;42.862;25.098;2023-04-25T03:52:34;7.18;;;6.97;;
6461;SDS011;3264;42.862;25.098;2023-04-25T03:55:02;8.65;;;8.32;;
6461;SDS011;3264;42.862;25.098;2023-04-25T03:57:30;7.88;;;7.57;;
6461;SDS011;3264;42.862;25.098;2023-04-25T03:59:58;11.82;;;7.63;;
6461;SDS011;3264;42.862;25.098;2023-04-25T04:02:27;8.32;;;8.02;;
6461;SDS011;3264;42.862;25.098;2023-04-25T04:04:55;7.38;;;7.18;;
6461;SDS011;3264;42.862;25.098;2023-04-25T04:07:23;7.70;;;7.50;;
6461;SDS011;3264;42.862;25.098;2023-04-25T04:09:53;7.53;;;7.32;;
6461;SDS011;3264;42.862;25.098;2023-04-25T04:12:22;8.27;;;7.82;;
6461;SDS011;3264;42.862;25.098;2023-04-25T04:14:50;7.47;;;7.28;;
6461;SDS011;3264;42.862;25.098;2023-04-25T04:17:18;6.93;;;6.72;;
6461;SDS011;3264;42.862;25.098;2023-04-25T04:19:48;7.70;;;7.50;;
6461;SDS011;3264;42.862;25.098;2023-04-25T04:22:16;7.50;;;7.30;;
6461;SDS011;3264;42.862;25.098;2023-04-25T04:24:45;7.55;;;7.25;;
6461;SDS011;3264;42.862;25.098;2023-04-25T04:27:15;7.78;;;7.50;;
6461;SDS011;3264;42.862;25.098;2023-04-25T04:29:45;7.85;;;7.57;;
6461;SDS011;3264;42.862;25.098;2023-04-25T04:32:13;7.55;;;7.35;;
6461;SDS011;3264;42.862;25.098;2023-04-25T04:34:42;6.80;;;6.60;;
6461;SDS011;3264;42.862;25.098;2023-04-25T04:37:10;7.10;;;6.90;;
6461;SDS011;3264;42.862;25.098;2023-04-25T04:39:38;7.72;;;7.50;;
6461;SDS011;3264;42.862;25.098;2023-04-25T04:42:17;7.28;;;7.07;;
6461;SDS011;3264;42.862;25.098;2023-04-25T04:44:47;7.38;;;7.18;;
6461;SDS011;3264;42.862;25.098;2023-04-25T04:47:15;7.45;;;7.25;;
6461;SDS011;3264;42.862;25.098;2023-04-25T04:49:45;7.85;;;7.57;;
6461;SDS011;3264;42.862;25.098;2023-04-25T04:52:14;7.97;;;7.68;;
6461;SDS011;3264;42.862;25.098;2023-04-25T04:54:43;7.60;;;7.40;;
6461;SDS011;3264;42.862;25.098;2023-04-25T04:57:11;7.40;;;7.20;;
6461;SDS011;3264;42.862;25.098;2023-04-25T04:59:41;7.70;;;7.50;;
6461;SDS011;3264;42.862;25.098;2023-04-25T05:02:09;7.40;;;7.20;;
6461;SDS011;3264;42.862;25.098;2023-04-25T05:04:37;7.82;;;7.55;;
6461;SDS011;3264;42.862;25.098;2023-04-25T05:07:05;7.30;;;7.10;;
6461;SDS011;3264;42.862;25.098;2023-04-25T05:09:33;7.50;;;7.30;;
6461;SDS011;3264;42.862;25.098;2023-04-25T05:12:01;7.60;;;7.40;;
6461;SDS011;3264;42.862;25.098;2023-04-25T05:14:29;7.90;;;7.60;;
6461;SDS011;3264;42.862;25.098;2023-04-25T05:17:00;7.63;;;7.43;;
6461;SDS011;3264;42.862;25.098;2023-04-25T05:19:30;7.32;;;7.13;;
6461;SDS011;3264;42.862;25.098;2023-04-25T05:21:58;7.20;;;7.00;;
6461;SDS011;3264;42.862;25.098;2023-04-25T05:24:26;7.35;;;7.15;;
6461;SDS011;3264;42.862;25.098;2023-04-25T05:26:55;7.00;;;6.80;;
6461;SDS011;3264;42.862;25.098;2023-04-25T05:29:23;7.00;;;6.80;;
6461;SDS011;3264;42.862;25.098;2023-04-25T05:31:51;7.40;;;7.20;;
6461;SDS011;3264;42.862;25.098;2023-04-25T05:34:21;7.40;;;7.20;;
6461;SDS011;3264;42.862;25.098;2023-04-25T05:36:48;7.80;;;7.55;;
6461;SDS011;3264;42.862;25.098;2023-04-25T05:39:16;6.93;;;6.72;;
6461;SDS011;3264;42.862;25.098;2023-04-25T05:41:44;7.00;;;6.80;;
6461;SDS011;3264;42.862;25.098;2023-04-25T05:44:12;7.10;;;6.90;;
6461;SDS011;3264;42.862;25.098;2023-04-25T05:46:41;6.43;;;6.22;;
6461;SDS011;3264;42.862;25.098;2023-04-25T05:49:08;7.00;;;6.80;;
6461;SDS011;3264;42.862;25.098;2023-04-25T05:51:38;7.13;;;6.93;;
6461;SDS011;3264;42.862;25.098;2023-04-25T05:54:07;7.10;;;6.90;;
6461;SDS011;3264;42.862;25.098;2023-04-25T05:56:35;8.05;;;7.75;;
6461;SDS011;3264;42.862;25.098;2023-04-25T05:59:03;6.68;;;6.47;;
6461;SDS011;3264;42.862;25.098;2023-04-25T06:01:32;7.15;;;6.88;;
6461;SDS011;3264;42.862;25.098;2023-04-25T06:04:00;7.30;;;7.10;;
6461;SDS011;3264;42.862;25.098;2023-04-25T06:06:27;6.97;;;6.78;;
6461;SDS011;3264;42.862;25.098;2023-04-25T06:08:57;7.03;;;6.82;;
6461;SDS011;3264;42.862;25.098;2023-04-25T06:11:26;7.20;;;7.00;;
6461;SDS011;3264;42.862;25.098;2023-04-25T06:13:55;7.07;;;6.88;;
6461;SDS011;3264;42.862;25.098;2023-04-25T06:16:24;8.05;;;7.75;;
6461;SDS011;3264;42.862;25.098;2023-04-25T06:18:52;6.72;;;6.53;;
6461;SDS011;3264;42.862;25.098;2023-04-25T06:21:21;6.57;;;6.38;;
6461;SDS011;3264;42.862;25.098;2023-04-25T06:23:49;6.70;;;6.50;;
6461;SDS011;3264;42.862;25.098;2023-04-25T06:26:19;6.88;;;6.68;;
6461;SDS011;3264;42.862;25.098;2023-04-25T06:28:47;7.28;;;7.03;;
6461;SDS011;3264;42.862;25.098;2023-04-25T06:31:15;6.82;;;6.63;;
6461;SDS011;3264;42.862;25.098;2023-04-25T06:33:43;7.85;;;7.50;;
6461;SDS011;3264;42.862;25.098;2023-04-25T06:36:10;6.75;;;6.55;;
6461;SDS011;3264;42.862;25.098;2023-04-25T06:38:38;7.13;;;6.93;;
6461;SDS011;3264;42.862;25.098;2023-04-25T06:41:06;7.20;;;7.00;;
6461;SDS011;3264;42.862;25.098;2023-04-25T06:43:35;6.68;;;6.47;;
6461;SDS011;3264;42.862;25.098;2023-04-25T06:46:04;6.80;;;6.60;;
6461;SDS011;3264;42.862;25.098;2023-04-25T06:48:32;7.00;;;6.80;;
6461;SDS011;3264;42.862;25.098;2023-04-25T06:51:01;6.57;;;6.38;;
6461;SDS011;3264;42.862;25.098;2023-04-25T06:53:29;7.00;;;6.80;;
6461;SDS011;3264;42.862;25.098;2023-04-25T06:55:57;7.13;;;6.93;;
6461;SDS011;3264;42.862;25.098;2023-04-25T06:58:25;6.95;;;6.75;;
6461;SDS011;3264;42.862;25.098;2023-04-25T07:00:54;6.93;;;6.72;;
6461;SDS011;3264;42.862;25.098;2023-04-25T07:03:22;7.10;;;6.90;;
6461;SDS011;3264;42.862;25.098;2023-04-25T07:05:51;6.55;;;6.35;;
6461;SDS011;3264;42.862;25.098;2023-04-25T07:08:21;6.80;;;6.60;;
6461;SDS011;3264;42.862;25.098;2023-04-25T07:10:50;7.05;;;6.85;;
6461;SDS011;3264;42.862;25.098;2023-04-25T07:13:19;6.85;;;6.65;;
6461;SDS011;3264;42.862;25.098;2023-04-25T07:15:46;6.85;;;6.65;;
6461;SDS011;3264;42.862;25.098;2023-04-25T07:18:15;6.63;;;6.43;;
6461;SDS011;3264;42.862;25.098;2023-04-25T07:20:43;6.60;;;6.40;;
6461;SDS011;3264;42.862;25.098;2023-04-25T07:23:12;7.53;;;7.22;;
6461;SDS011;3264;42.862;25.098;2023-04-25T07:25:40;6.40;;;6.20;;
6461;SDS011;3264;42.862;25.098;2023-04-25T07:28:09;7.00;;;6.80;;
6461;SDS011;3264;42.862;25.098;2023-04-25T07:30:37;5.95;;;5.75;;
6461;SDS011;3264;42.862;25.098;2023-04-25T07:33:05;6.95;;;6.75;;
6461;SDS011;3264;42.862;25.098;2023-04-25T07:35:35;7.00;;;6.80;;
6461;SDS011;3264;42.862;25.098;2023-04-25T07:38:14;6.18;;;5.97;;
6461;SDS011;3264;42.862;25.098;2023-04-25T07:40:41;6.40;;;6.20;;
6461;SDS011;3264;42.862;25.098;2023-04-25T07:43:09;6.75;;;6.55;;
6461;SDS011;3264;42.862;25.098;2023-04-25T07:45:41;6.70;;;6.50;;
6461;SDS011;3264;42.862;25.098;2023-04-25T07:48:09;7.00;;;6.80;;
6461;SDS011;3264;42.862;25.098;2023-04-25T07:50:39;7.35;;;7.15;;
6461;SDS011;3264;42.862;25.098;2023-04-25T07:53:07;6.45;;;6.25;;
6461;SDS011;3264;42.862;25.098;2023-04-25T07:55:35;6.72;;;6.53;;
6461;SDS011;3264;42.862;25.098;2023-04-25T07:58:06;6.78;;;6.57;;
6461;SDS011;3264;42.862;25.098;2023-04-25T08:00:34;6.65;;;6.45;;
6461;SDS011;3264;42.862;25.098;2023-04-25T08:03:05;6.50;;;6.30;;
6461;SDS011;3264;42.862;25.098;2023-04-25T08:05:33;6.78;;;6.57;;
6461;SDS011;3264;42.862;25.098;2023-04-25T08:08:03;6.53;;;6.32;;
6461;SDS011;3264;42.862;25.098;2023-04-25T08:10:32;6.47;;;6.28;;
6461;SDS011;3264;42.862;25.098;2023-04-25T08:13:00;7.10;;;6.90;;
6461;SDS011;3264;42.862;25.098;2023-04-25T08:15:28;8.15;;;7.70;;
6461;SDS011;3264;42.862;25.098;2023-04-25T08:17:56;6.53;;;6.32;;
6461;SDS011;3264;42.862;25.098;2023-04-25T08:20:25;6.50;;;6.30;;
6461;SDS011;3264;42.862;25.098;2023-04-25T08:22:54;6.32;;;6.13;;
6461;SDS011;3264;42.862;25.098;2023-04-25T08:25:24;6.70;;;6.50;;
6461;SDS011;3264;42.862;25.098;2023-04-25T08:27:54;6.70;;;6.50;;
6461;SDS011;3264;42.862;25.098;2023-04-25T08:30:26;7.20;;;7.00;;
6461;SDS011;3264;42.862;25.098;2023-04-25T08:32:54;6.57;;;6.38;;
6461;SDS011;3264;42.862;25.098;2023-04-25T08:35:23;6.90;;;6.70;;
6461;SDS011;3264;42.862;25.098;2023-04-25T08:37:50;6.93;;;6.72;;
6461;SDS011;3264;42.862;25.098;2023-04-25T08:40:20;6.60;;;6.40;;
6461;SDS011;3264;42.862;25.098;2023-04-25T08:42:55;8.05;;;7.45;;
6461;SDS011;3264;42.862;25.098;2023-04-25T08:45:24;7.00;;;6.80;;
6461;SDS011;3264;42.862;25.098;2023-04-25T08:47:55;7.55;;;7.25;;
6461;SDS011;3264;42.862;25.098;2023-04-25T08:50:26;6.75;;;6.55;;
6461;SDS011;3264;42.862;25.098;2023-04-25T08:52:55;6.78;;;6.57;;
6461;SDS011;3264;42.862;25.098;2023-04-25T08:55:28;6.63;;;6.43;;
6461;SDS011;3264;42.862;25.098;2023-04-25T08:57:57;6.95;;;6.72;;
6461;SDS011;3264;42.862;25.098;2023-04-25T09:00:26;6.90;;;6.70;;
6461;SDS011;3264;42.862;25.098;2023-04-25T09:02:55;6.55;;;6.35;;
6461;SDS011;3264;42.862;25.098;2023-04-25T09:05:24;6.22;;;6.03;;
6461;SDS011;3264;42.862;25.098;2023-04-25T09:07:54;6.60;;;6.40;;
6461;SDS011;3264;42.862;25.098;2023-04-25T09:10:23;6.25;;;6.05;;
6461;SDS011;3264;42.862;25.098;2023-04-25T09:13:04;7.30;;;7.00;;
6461;SDS011;3264;42.862;25.098;2023-04-25T09:15:34;7.97;;;7.68;;
6461;SDS011;3264;42.862;25.098;2023-04-25T09:18:21;6.75;;;6.55;;
6461;SDS011;3264;42.862;25.098;2023-04-25T09:20:51;6.68;;;6.47;;
6461;SDS011;3264;42.862;25.098;2023-04-25T09:23:21;6.75;;;6.55;;
6461;SDS011;3264;42.862;25.098;2023-04-25T09:25:51;6.90;;;6.70;;
6461;SDS011;3264;42.862;25.098;2023-04-25T09:28:26;6.63;;;6.43;;
6461;SDS011;3264;42.862;25.098;2023-04-25T09:30:54;6.25;;;6.05;;
6461;SDS011;3264;42.862;25.098;2023-04-25T09:33:27;7.00;;;6.80;;
6461;SDS011;3264;42.862;25.098;2023-04-25T09:36:01;7.00;;;6.80;;
6461;SDS011;3264;42.862;25.098;2023-04-25T09:38:32;6.57;;;6.38;;
6461;SDS011;3264;42.862;25.098;2023-04-25T09:41:08;7.25;;;7.05;;
6461;SDS011;3264;42.862;25.098;2023-04-25T09:43:38;7.20;;;7.00;;
6461;SDS011;3264;42.862;25.098;2023-04-25T09:46:07;6.78;;;6.57;;
6461;SDS011;3264;42.862;25.098;2023-04-25T09:48:36;6.90;;;6.70;;
6461;SDS011;3264;42.862;25.098;2023-04-25T09:51:05;6.97;;;6.78;;
6461;SDS011;3264;42.862;25.098;2023-04-25T09:53:34;6.50;;;6.30;;
6461;SDS011;3264;42.862;25.098;2023-04-25T09:56:05;6.80;;;6.60;;
6461;SDS011;3264;42.862;25.098;2023-04-25T09:58:34;6.80;;;6.60;;
6461;SDS011;3264;42.862;25.098;2023-04-25T10:01:04;6.40;;;6.20;;
6461;SDS011;3264;42.862;25.098;2023-04-25T10:03:33;7.45;;;7.18;;
6461;SDS011;3264;42.862;25.098;2023-04-25T10:06:02;7.07;;;6.78;;
6461;SDS011;3264;42.862;25.098;2023-04-25T10:08:35;6.22;;;6.03;;
6461;SDS011;3264;42.862;25.098;2023-04-25T10:11:09;9.10;;;8.45;;
6461;SDS011;3264;42.862;25.098;2023-04-25T10:13:39;6.40;;;6.20;;
6461;SDS011;3264;42.862;25.098;2023-04-25T10:16:10;6.50;;;6.30;;
6461;SDS011;3264;42.862;25.098;2023-04-25T10:18:39;6.50;;;6.30;;
6461;SDS011;3264;42.862;25.098;2023-04-25T10:21:08;6.57;;;6.38;;
6461;SDS011;3264;42.862;25.098;2023-04-25T10:23:38;6.72;;;6.53;;
6461;SDS011;3264;42.862;25.098;2023-04-25T10:26:07;6.50;;;6.30;;
6461;SDS011;3264;42.862;25.098;2023-04-25T10:31:26;6.60;;;6.40;;
6461;SDS011;3264;42.862;25.098;2023-04-25T10:33:56;6.45;;;6.25;;
6461;SDS011;3264;42.862;25.098;2023-04-25T10:36:26;5.90;;;5.70;;
6461;SDS011;3264;42.862;25.098;2023-04-25T10:39:09;7.10;;;6.90;;
6461;SDS011;3264;42.862;25.098;2023-04-25T10:41:46;6.45;;;6.25;;
6461;SDS011;3264;42.862;25.098;2023-04-25T10:44:14;6.60;;;6.40;;
6461;SDS011;3264;42.862;25.098;2023-04-25T10:46:45;7.15;;;6.95;;
6461;SDS011;3264;42.862;25.098;2023-04-25T10:49:29;6.90;;;6.70;;
6461;SDS011;3264;42.862;25.098;2023-04-25T10:52:11;6.35;;;6.15;;
6461;SDS011;3264;42.862;25.098;2023-04-25T10:54:40;6.35;;;6.15;;
6461;SDS011;3264;42.862;25.098;2023-04-25T10:59:58;6.47;;;6.28;;
6461;SDS011;3264;42.862;25.098;2023-04-25T11:02:42;6.30;;;6.10;;
6461;SDS011;3264;42.862;25.098;2023-04-25T11:05:30;6.70;;;6.50;;
6461;SDS011;3264;42.862;25.098;2023-04-25T11:08:01;6.57;;;6.38;;
6461;SDS011;3264;42.862;25.098;2023-04-25T11:10:37;6.50;;;6.30;;
6461;SDS011;3264;42.862;25.098;2023-04-25T11:13:07;7.13;;;6.93;;
6461;SDS011;3264;42.862;25.098;2023-04-25T11:15:35;6.57;;;6.38;;
6461;SDS011;3264;42.862;25.098;2023-04-25T11:18:06;6.88;;;6.68;;
6461;SDS011;3264;42.862;25.098;2023-04-25T11:20:34;6.80;;;6.60;;
6461;SDS011;3264;42.862;25.098;2023-04-25T11:23:03;6.55;;;6.35;;
6461;SDS011;3264;42.862;25.098;2023-04-25T11:25:32;6.60;;;6.40;;
6461;SDS011;3264;42.862;25.098;2023-04-25T11:28:00;6.60;;;6.40;;
6461;SDS011;3264;42.862;25.098;2023-04-25T11:30:47;6.72;;;6.53;;
6461;SDS011;3264;42.862;25.098;2023-04-25T11:33:28;6.15;;;5.95;;
6461;SDS011;3264;42.862;25.098;2023-04-25T11:35:57;6.20;;;6.00;;
6461;SDS011;3264;42.862;25.098;2023-04-25T11:38:25;6.20;;;6.00;;
6461;SDS011;3264;42.862;25.098;2023-04-25T11:40:53;6.28;;;6.07;;
6461;SDS011;3264;42.862;25.098;2023-04-25T11:43:21;6.40;;;6.20;;
6461;SDS011;3264;42.862;25.098;2023-04-25T11:45:50;6.65;;;6.45;;
6461;SDS011;3264;42.862;25.098;2023-04-25T11:48:18;6.53;;;6.32;;
6461;SDS011;3264;42.862;25.098;2023-04-25T11:50:48;6.45;;;6.25;;
6461;SDS011;3264;42.862;25.098;2023-04-25T11:53:17;6.65;;;6.45;;
6461;SDS011;3264;42.862;25.098;2023-04-25T11:55:46;6.32;;;6.13;;
6461;SDS011;3264;42.862;25.098;2023-04-25T11:58:14;6.70;;;6.50;;
6461;SDS011;3264;42.862;25.098;2023-04-25T12:00:43;7.28;;;6.93;;
6461;SDS011;3264;42.862;25.098;2023-04-25T12:03:11;7.15;;;6.95;;
6461;SDS011;3264;42.862;25.098;2023-04-25T12:05:39;6.53;;;6.32;;
6461;SDS011;3264;42.862;25.098;2023-04-25T12:14:57;6.80;;;6.60;;
6461;SDS011;3264;42.862;25.098;2023-04-25T12:17:38;6.60;;;6.40;;
6461;SDS011;3264;42.862;25.098;2023-04-25T12:20:07;6.43;;;6.22;;
6461;SDS011;3264;42.862;25.098;2023-04-25T12:22:36;6.68;;;6.47;;
6461;SDS011;3264;42.862;25.098;2023-04-25T12:25:04;6.60;;;6.40;;
6461;SDS011;3264;42.862;25.098;2023-04-25T12:27:32;7.03;;;6.82;;
6461;SDS011;3264;42.862;25.098;2023-04-25T12:30:03;6.30;;;6.10;;
6461;SDS011;3264;42.862;25.098;2023-04-25T12:32:33;6.90;;;6.70;;
6461;SDS011;3264;42.862;25.098;2023-04-25T12:35:03;6.50;;;6.30;;
6461;SDS011;3264;42.862;25.098;2023-04-25T12:37:32;6.60;;;6.40;;
6461;SDS011;3264;42.862;25.098;2023-04-25T12:40:00;6.35;;;6.15;;
6461;SDS011;3264;42.862;25.098;2023-04-25T12:42:30;6.40;;;6.20;;
6461;SDS011;3264;42.862;25.098;2023-04-25T12:44:59;6.60;;;6.40;;
6461;SDS011;3264;42.862;25.098;2023-04-25T12:47:29;6.03;;;5.82;;
6461;SDS011;3264;42.862;25.098;2023-04-25T12:50:00;7.38;;;6.88;;
6461;SDS011;3264;42.862;25.098;2023-04-25T12:52:30;6.88;;;6.68;;
6461;SDS011;3264;42.862;25.098;2023-04-25T12:54:59;6.07;;;5.88;;
6461;SDS011;3264;42.862;25.098;2023-04-25T12:57:26;6.60;;;6.40;;
6461;SDS011;3264;42.862;25.098;2023-04-25T12:59:54;6.45;;;6.25;;
6461;SDS011;3264;42.862;25.098;2023-04-25T13:02:22;6.32;;;6.13;;
6461;SDS011;3264;42.862;25.098;2023-04-25T13:04:52;6.80;;;6.60;;
6461;SDS011;3264;42.862;25.098;2023-04-25T13:07:21;6.95;;;6.75;;
6461;SDS011;3264;42.862;25.098;2023-04-25T13:09:48;6.72;;;6.53;;
6461;SDS011;3264;42.862;25.098;2023-04-25T13:12:17;5.97;;;5.78;;
6461;SDS011;3264;42.862;25.098;2023-04-25T13:14:45;6.60;;;6.40;;
6461;SDS011;3264;42.862;25.098;2023-04-25T13:17:13;6.90;;;6.70;;
6461;SDS011;3264;42.862;25.098;2023-04-25T13:19:41;6.75;;;6.55;;
6461;SDS011;3264;42.862;25.098;2023-04-25T13:22:12;6.53;;;6.32;;
6461;SDS011;3264;42.862;25.098;2023-04-25T13:24:41;6.88;;;6.68;;
6461;SDS011;3264;42.862;25.098;2023-04-25T13:27:10;6.68;;;6.47;;
6461;SDS011;3264;42.862;25.098;2023-04-25T13:29:38;6.43;;;6.22;;
6461;SDS011;3264;42.862;25.098;2023-04-25T13:32:19;6.30;;;6.10;;
6461;SDS011;3264;42.862;25.098;2023-04-25T13:34:47;6.38;;;6.18;;
6461;SDS011;3264;42.862;25.098;2023-04-25T13:37:17;6.60;;;6.40;;
6461;SDS011;3264;42.862;25.098;2023-04-25T13:39:46;6.43;;;6.22;;
6461;SDS011;3264;42.862;25.098;2023-04-25T13:42:13;6.57;;;6.38;;
6461;SDS011;3264;42.862;25.098;2023-04-25T13:44:42;6.70;;;6.50;;
6461;SDS011;3264;42.862;25.098;2023-04-25T13:47:11;6.50;;;6.30;;
6461;SDS011;3264;42.862;25.098;2023-04-25T13:49:40;6.43;;;6.22;;
6461;SDS011;3264;42.862;25.098;2023-04-25T13:52:08;6.45;;;6.25;;
6461;SDS011;3264;42.862;25.098;2023-04-25T13:54:39;6.38;;;6.18;;
6461;SDS011;3264;42.862;25.098;2023-04-25T13:57:07;6.00;;;5.80;;
6461;SDS011;3264;42.862;25.098;2023-04-25T13:59:37;6.85;;;6.55;;
6461;SDS011;3264;42.862;25.098;2023-04-25T14:02:06;6.53;;;6.32;;
6461;SDS011;3264;42.862;25.098;2023-04-25T14:04:34;6.60;;;6.40;;
6461;SDS011;3264;42.862;25.098;2023-04-25T14:07:02;6.57;;;6.38;;
6461;SDS011;3264;42.862;25.098;2023-04-25T14:09:31;6.70;;;6.50;;
6461;SDS011;3264;42.862;25.098;2023-04-25T14:12:02;6.60;;;6.40;;
6461;SDS011;3264;42.862;25.098;2023-04-25T14:14:29;6.45;;;6.25;;
6461;SDS011;3264;42.862;25.098;2023-04-25T14:16:57;6.30;;;6.10;;
6461;SDS011;3264;42.862;25.098;2023-04-25T14:19:26;6.22;;;6.03;;
6461;SDS011;3264;42.862;25.098;2023-04-25T14:21:56;6.70;;;6.50;;
6461;SDS011;3264;42.862;25.098;2023-04-25T14:24:23;6.50;;;6.30;;
6461;SDS011;3264;42.862;25.098;2023-04-25T14:26:53;6.60;;;6.40;;
6461;SDS011;3264;42.862;25.098;2023-04-25T14:29:23;6.80;;;6.60;;
6461;SDS011;3264;42.862;25.098;2023-04-25T14:31:52;6.63;;;6.43;;
6461;SDS011;3264;42.862;25.098;2023-04-25T14:34:20;6.80;;;6.60;;
6461;SDS011;3264;42.862;25.098;2023-04-25T14:36:48;6.57;;;6.38;;
6461;SDS011;3264;42.862;25.098;2023-04-25T14:39:16;6.55;;;6.35;;
6461;SDS011;3264;42.862;25.098;2023-04-25T14:41:44;7.47;;;7.18;;
6461;SDS011;3264;42.862;25.098;2023-04-25T14:44:12;6.75;;;6.55;;
6461;SDS011;3264;42.862;25.098;2023-04-25T14:46:43;6.50;;;6.30;;
6461;SDS011;3264;42.862;25.098;2023-04-25T14:49:12;6.25;;;6.05;;
6461;SDS011;3264;42.862;25.098;2023-04-25T14:51:39;6.60;;;6.40;;
6461;SDS011;3264;42.862;25.098;2023-04-25T14:54:08;6.60;;;6.40;;
6461;SDS011;3264;42.862;25.098;2023-04-25T14:56:37;7.18;;;6.97;;
6461;SDS011;3264;42.862;25.098;2023-04-25T14:59:06;6.55;;;6.35;;
6461;SDS011;3264;42.862;25.098;2023-04-25T15:01:33;6.53;;;6.32;;
6461;SDS011;3264;42.862;25.098;2023-04-25T15:04:03;6.40;;;6.20;;
6461;SDS011;3264;42.862;25.098;2023-04-25T15:06:31;6.40;;;6.20;;
6461;SDS011;3264;42.862;25.098;2023-04-25T15:09:00;6.45;;;6.25;;
6461;SDS011;3264;42.862;25.098;2023-04-25T15:11:29;6.40;;;6.20;;
6461;SDS011;3264;42.862;25.098;2023-04-25T15:13:57;6.25;;;6.05;;
6461;SDS011;3264;42.862;25.098;2023-04-25T15:16:24;6.35;;;6.15;;
6461;SDS011;3264;42.862;25.098;2023-04-25T15:18:52;6.50;;;6.30;;
6461;SDS011;3264;42.862;25.098;2023-04-25T15:21:23;6.32;;;6.13;;
6461;SDS011;3264;42.862;25.098;2023-04-25T15:23:51;6.13;;;5.93;;
6461;SDS011;3264;42.862;25.098;2023-04-25T15:26:20;6.35;;;6.15;;